Time;durP1;ratioP1;P1;durP2;ratioP2;P2;SDS_P1;SDS_P2;PMS_P1;PMS_P2;Temp;Humidity;BMP_temperature;BMP_pressure;BME280_temperature;BME280_humidity;BME280_pressure;Samples;Min_cycle;Max_cycle;Signal;HPM_P1;HPM_P2
2023/04/27 00:04:36;;;;;;;1.77;0.70;;;;;;;20.02;37.42;101743.22;19877848;29;20516;-63
2023/04/27 00:14:45;;;;;;;0.65;0.57;;;;;;;20.00;37.21;101760.44;19876591;29;20078;-63
2023/04/27 00:24:49;;;;;;;1.20;0.80;;;;;;;20.03;37.07;101770.13;19889079;29;20130;-63
2023/04/27 00:34:51;;;;;;;0.65;0.50;;;;;;;20.04;37.03;101760.16;19893259;29;20591;-63
2023/04/27 00:44:57;;;;;;;1.05;0.80;;;;;;;19.99;36.93;101758.72;19890552;29;20111;-63
2023/04/27 00:55:04;;;;;;;1.08;0.90;;;;;;;19.97;36.72;101763.38;19890795;29;20142;-63
2023/04/27 01:05:13;;;;;;;1.45;0.70;;;;;;;19.95;37.02;101767.22;19891450;29;20074;-63
2023/04/27 01:15:17;;;;;;;0.93;0.80;;;;;;;19.95;36.70;101762.66;19889423;29;20059;-63
2023/04/27 01:25:19;;;;;;;1.35;0.90;;;;;;;19.96;36.67;101755.44;19889272;29;20569;-63
2023/04/27 01:35:22;;;;;;;3.00;0.90;;;;;;;19.98;36.62;101756.16;19872400;29;20488;-63
2023/04/27 01:45:27;;;;;;;1.00;0.95;;;;;;;19.98;36.52;101754.28;19888298;29;20055;-63
2023/04/27 01:55:31;;;;;;;1.60;1.00;;;;;;;19.98;36.42;101762.41;19870920;29;20078;-63
2023/04/27 02:05:38;;;;;;;1.15;0.80;;;;;;;19.94;36.31;101766.34;19886080;29;20142;-63
2023/04/27 02:15:40;;;;;;;1.95;1.08;;;;;;;20.00;36.29;101770.41;19886992;29;20059;-63
2023/04/27 02:25:45;;;;;;;2.22;0.98;;;;;;;20.00;36.26;101779.34;19883299;29;20130;-63
2023/04/27 02:35:49;;;;;;;0.93;0.90;;;;;;;20.02;36.34;101773.81;19898931;29;20055;-63
2023/04/27 02:45:51;;;;;;;0.80;0.80;;;;;;;20.01;36.31;101774.81;19877221;29;20440;-63
2023/04/27 02:55:52;;;;;;;1.33;0.80;;;;;;;20.00;36.11;101755.03;19883735;29;20062;-63
2023/04/27 03:05:56;;;;;;;1.42;0.90;;;;;;;20.02;35.89;101746.81;19882652;29;20142;-63
2023/04/27 03:15:57;;;;;;;2.33;1.08;;;;;;;20.02;35.84;101741.41;19882064;29;20063;-63
2023/04/27 03:25:59;;;;;;;1.13;0.98;;;;;;;20.00;36.22;101738.81;19858094;29;20058;-63
2023/04/27 03:36:03;;;;;;;2.25;1.10;;;;;;;19.94;37.15;101724.97;19885131;29;20062;-64
2023/04/27 03:46:04;;;;;;;4.75;1.20;;;;;;;20.04;37.29;101731.31;19879136;29;20066;-62
2023/04/27 03:56:08;;;;;;;2.00;1.17;;;;;;;20.07;37.42;101744.56;19906042;29;20061;-62
2023/04/27 04:06:10;;;;;;;1.67;1.00;;;;;;;20.10;36.96;101752.41;19953767;29;20436;-62
2023/04/27 04:16:13;;;;;;;2.47;1.30;;;;;;;20.15;36.86;101757.44;19952782;29;20138;-62
2023/04/27 04:26:15;;;;;;;1.92;1.10;;;;;;;20.17;36.80;101750.06;19953974;29;20530;-62
2023/04/27 04:36:17;;;;;;;1.45;0.93;;;;;;;20.17;36.70;101760.00;19928149;29;20082;-62
2023/04/27 04:46:19;;;;;;;1.98;1.00;;;;;;;20.19;36.59;101782.34;19876677;29;20055;-62
2023/04/27 04:56:21;;;;;;;1.80;1.17;;;;;;;20.21;36.41;101781.25;19875657;29;20610;-62
2023/04/27 05:06:22;;;;;;;1.58;0.90;;;;;;;20.22;36.39;101784.78;19877985;29;20050;-62
2023/04/27 05:16:25;;;;;;;1.08;0.98;;;;;;;20.23;36.40;101802.72;19889487;29;20126;-62
2023/04/27 05:26:26;;;;;;;1.40;1.15;;;;;;;20.22;36.37;101803.72;19890035;29;20054;-62
2023/04/27 05:36:28;;;;;;;1.55;1.00;;;;;;;20.20;36.40;101802.97;19888914;29;20419;-62
2023/04/27 05:46:30;;;;;;;1.10;1.00;;;;;;;20.19;36.43;101823.78;19887661;29;20126;-62
2023/04/27 05:56:31;;;;;;;1.27;1.17;;;;;;;20.22;36.60;101811.81;19886429;29;20556;-62
2023/04/27 06:06:34;;;;;;;1.23;1.10;;;;;;;20.22;37.08;101817.22;19889893;29;20055;-63
2023/04/27 06:16:35;;;;;;;2.35;1.20;;;;;;;20.26;37.48;101807.88;19907535;29;20149;-62
2023/04/27 06:26:37;;;;;;;1.48;0.90;;;;;;;20.36;38.08;101807.97;19894310;29;20058;-62
2023/04/27 06:36:39;;;;;;;2.63;1.00;;;;;;;20.43;38.93;101810.00;19881361;29;20149;-62
2023/04/27 06:46:40;;;;;;;1.10;1.00;;;;;;;20.51;39.04;101805.78;19861396;29;20086;-62
2023/04/27 06:56:43;;;;;;;1.85;1.00;;;;;;;20.57;40.33;101794.44;19866101;29;20059;-62
2023/04/27 07:06:45;;;;;;;2.80;1.35;;;;;;;20.69;41.86;101793.38;19899752;29;20737;-62
2023/04/27 07:16:46;;;;;;;2.13;1.20;;;;;;;20.80;42.05;101799.75;19879625;29;20065;-62
2023/04/27 07:26:48;;;;;;;0.98;0.70;;;;;;;20.90;41.24;101784.41;19948957;29;20058;-62
2023/04/27 07:36:52;;;;;;;1.60;1.00;;;;;;;21.06;40.62;101802.00;19902203;29;20054;-62
2023/04/27 07:46:57;;;;;;;1.17;0.82;;;;;;;21.42;40.14;101797.84;19946961;29;20089;-62
2023/04/27 07:56:58;;;;;;;;;;;;;;;22.19;38.52;101782.88;19955588;29;20519;-62
2023/04/27 08:07:00;;;;;;;2.72;0.95;;;;;;;22.96;37.44;101797.31;19955470;29;19925;-62
2023/04/27 08:17:02;;;;;;;0.80;0.70;;;;;;;23.29;36.79;101796.94;19928850;29;20058;-62
2023/04/27 08:27:05;;;;;;;2.35;0.80;;;;;;;23.66;35.81;101784.28;19866808;29;20094;-62
2023/04/27 08:37:07;;;;;;;0.60;0.60;;;;;;;24.32;34.82;101796.66;19893982;29;20440;-62
2023/04/27 08:47:09;;;;;;;1.30;0.90;;;;;;;24.41;34.57;101808.47;19903363;29;20078;-62
2023/04/27 08:57:12;;;;;;;4.25;1.05;;;;;;;23.96;34.79;101814.84;19937512;29;20424;-63
2023/04/27 09:07:17;;;;;;;1.83;1.00;;;;;;;23.52;34.94;101816.41;19885730;29;20062;-59
2023/04/27 09:17:23;;;;;;;2.00;0.80;;;;;;;23.13;35.62;101802.97;19851185;29;20067;-59
2023/04/27 09:27:25;;;;;;;1.20;0.80;;;;;;;22.88;35.86;101808.94;19852689;29;20055;-59
2023/04/27 09:37:27;;;;;;;2.83;0.90;;;;;;;22.71;36.09;101796.97;19861399;29;20062;-59
2023/04/27 09:47:29;;;;;;;2.67;0.95;;;;;;;22.66;36.60;101801.97;19843128;29;20055;-59
2023/04/27 09:57:38;;;;;;;0.70;0.70;;;;;;;22.58;36.81;101797.28;19882176;29;20089;-59
2023/04/27 10:07:40;;;;;;;2.00;1.08;;;;;;;22.48;36.51;101792.84;19881716;29;20508;-58
2023/04/27 10:17:49;;;;;;;1.17;0.75;;;;;;;22.49;36.77;101791.84;19852910;29;20083;-59
2023/04/27 10:27:53;;;;;;;1.52;1.02;;;;;;;22.41;36.55;101782.56;19869261;29;20062;-59
2023/04/27 10:38:05;;;;;;;1.67;1.00;;;;;;;22.31;36.69;101763.56;19890328;29;20562;-59
2023/04/27 10:48:06;;;;;;;2.22;0.90;;;;;;;22.30;36.86;101759.16;19869172;29;20445;-59
2023/04/27 10:58:08;;;;;;;2.28;0.95;;;;;;;22.30;36.80;101756.44;19880604;29;20059;-59
2023/04/27 11:08:11;;;;;;;1.70;0.85;;;;;;;22.29;36.94;101759.31;19885861;29;20046;-59
2023/04/27 11:18:15;;;;;;;1.93;0.83;;;;;;;22.23;36.78;101752.59;19885330;29;20050;-59
2023/04/27 11:28:20;;;;;;;1.08;0.88;;;;;;;22.21;36.46;101756.47;19905679;29;20054;-59
2023/04/27 11:38:22;;;;;;;1.75;0.80;;;;;;;22.14;36.52;101742.63;19899367;29;20070;-59
2023/04/27 11:48:26;;;;;;;1.20;1.00;;;;;;;22.15;36.32;101758.75;19902611;29;20117;-59
2023/04/27 11:58:30;;;;;;;1.25;0.90;;;;;;;22.13;36.46;101754.47;19903073;29;20558;-59
2023/04/27 12:08:32;;;;;;;1.20;0.75;;;;;;;22.14;36.36;101751.63;19900145;29;20563;-59
2023/04/27 12:18:35;;;;;;;1.65;0.93;;;;;;;22.15;36.09;101749.75;19894515;29;20058;-59
2023/04/27 12:28:37;;;;;;;1.15;0.80;;;;;;;22.13;35.94;101735.50;19908920;29;20050;-59
2023/04/27 12:38:41;;;;;;;0.93;0.80;;;;;;;22.15;36.08;101742.50;19895575;29;20047;-59
2023/04/27 12:48:45;;;;;;;1.05;0.80;;;;;;;22.14;36.18;101735.34;19905129;29;20423;-59
2023/04/27 12:58:49;;;;;;;0.70;0.60;;;;;;;22.09;36.16;101732.19;19893876;29;20054;-59
2023/04/27 13:08:51;;;;;;;1.45;0.80;;;;;;;21.97;36.01;101722.50;19900922;29;20049;-59
2023/04/27 13:18:54;;;;;;;1.15;0.77;;;;;;;21.92;36.11;101727.50;19899969;29;20054;-59
2023/04/27 13:28:58;;;;;;;1.15;0.80;;;;;;;21.86;36.25;101716.25;19894322;29;20059;-59
2023/04/27 13:39:02;;;;;;;1.10;0.90;;;;;;;21.83;36.42;101702.09;19917965;29;20058;-59
2023/04/27 13:49:07;;;;;;;0.90;0.80;;;;;;;21.83;36.32;101705.69;19908325;29;20511;-59
2023/04/27 13:59:09;;;;;;;1.52;1.10;;;;;;;21.81;36.29;101696.84;19908916;29;20093;-59
2023/04/27 14:09:17;;;;;;;2.25;0.95;;;;;;;21.83;36.14;101691.25;19907421;29;20046;-59
2023/04/27 14:19:19;;;;;;;1.73;0.93;;;;;;;21.80;36.27;101678.00;19909855;29;20083;-59
2023/04/27 14:29:25;;;;;;;1.45;0.90;;;;;;;21.77;36.36;101673.75;19920062;29;20599;-59
2023/04/27 14:39:38;;;;;;;1.30;1.08;;;;;;;21.74;36.26;101676.75;19906620;29;20405;-59
2023/04/27 14:49:40;;;;;;;1.67;1.00;;;;;;;21.72;36.15;101676.03;19911073;29;20533;-59
2023/04/27 14:59:44;;;;;;;1.10;0.97;;;;;;;21.70;36.14;101667.19;19907262;29;20094;-59
2023/04/27 15:09:45;;;;;;;1.63;1.00;;;;;;;21.67;36.25;101660.19;19924077;29;20448;-59
2023/04/27 15:19:50;;;;;;;0.80;0.80;;;;;;;21.65;36.31;101670.31;19903458;29;20389;-59
2023/04/27 15:29:53;;;;;;;1.20;1.10;;;;;;;21.56;36.41;101652.19;19904294;29;20459;-59
2023/04/27 15:39:55;;;;;;;0.85;0.70;;;;;;;21.51;36.23;101639.03;19901910;29;20419;-59
2023/04/27 15:50:01;;;;;;;1.17;0.80;;;;;;;21.46;36.29;101627.78;19899698;29;20523;-59
2023/04/27 16:00:06;;;;;;;;;;;;;;;21.41;36.33;101630.06;19904197;29;20059;-59
2023/04/27 16:10:11;;;;;;;1.90;0.98;;;;;;;21.37;36.43;101617.81;19897550;29;20291;-59
2023/04/27 16:20:13;;;;;;;1.58;1.10;;;;;;;21.38;37.99;101608.69;19851658;29;20083;-61
2023/04/27 16:30:17;;;;;;;0.82;0.80;;;;;;;21.35;38.05;101598.13;19892877;29;20054;-64
2023/04/27 16:40:19;;;;;;;3.40;2.08;;;;;;;21.39;38.97;101584.16;19839830;29;20066;-63
2023/04/27 16:50:26;;;;;;;4.43;1.80;;;;;;;21.45;40.18;101577.31;19831740;29;20541;-64
2023/04/27 17:00:27;;;;;;;4.80;1.98;;;;;;;21.70;43.07;101569.63;19854455;29;20065;-64
2023/04/27 17:10:31;;;;;;;2.45;1.30;;;;;;;21.81;44.26;101571.28;19899159;29;20484;-63
2023/04/27 17:20:33;;;;;;;2.63;1.40;;;;;;;21.78;44.46;101567.03;19864684;29;20501;-62
2023/04/27 17:30:36;;;;;;;2.78;1.63;;;;;;;21.71;44.46;101557.78;19849843;29;20508;-63
2023/04/27 17:40:38;;;;;;;3.50;1.50;;;;;;;21.65;44.64;101561.06;19875070;29;20055;-67
2023/04/27 17:50:40;;;;;;;1.58;1.15;;;;;;;21.58;44.33;101556.19;19885709;29;20576;-68
2023/04/27 18:00:43;;;;;;;2.27;1.00;;;;;;;21.54;44.13;101534.97;19877420;29;20055;-68
2023/04/27 18:10:45;;;;;;;1.58;1.25;;;;;;;21.52;43.83;101523.44;19867110;29;20061;-68
2023/04/27 18:20:47;;;;;;;3.90;1.50;;;;;;;21.49;43.67;101535.38;19867055;29;20042;-68
2023/04/27 18:30:51;;;;;;;1.80;1.43;;;;;;;21.46;43.42;101534.84;19891489;29;20046;-67
2023/04/27 18:40:57;;;;;;;3.53;1.30;;;;;;;21.42;42.76;101545.09;19872579;29;20134;-69
2023/04/27 18:51:01;;;;;;;3.65;1.52;;;;;;;21.37;42.88;101552.81;19867875;29;20047;-68
2023/04/27 19:01:12;;;;;;;1.88;1.40;;;;;;;21.34;42.87;101562.06;19866108;29;20104;-68
2023/04/27 19:11:15;;;;;;;2.20;1.50;;;;;;;21.30;42.66;101553.38;19880222;29;20058;-67
2023/04/27 19:21:16;;;;;;;1.40;1.15;;;;;;;21.25;42.65;101554.78;19891688;29;20058;-68
2023/04/27 19:31:28;;;;;;;1.95;1.50;;;;;;;21.20;42.52;101555.22;19887930;29;20131;-69
2023/04/27 19:41:37;;;;;;;1.67;1.00;;;;;;;21.15;42.47;101550.25;19892493;29;20529;-68
2023/04/27 19:51:41;;;;;;;1.52;0.95;;;;;;;21.09;42.58;101542.69;19898269;29;20071;-68
2023/04/27 20:01:43;;;;;;;3.15;2.03;;;;;;;21.08;43.16;101526.59;19865518;29;20400;-68
2023/04/27 20:11:46;;;;;;;1.85;1.15;;;;;;;21.08;45.23;101535.56;19869345;29;20432;-68
2023/04/27 20:21:48;;;;;;;1.95;1.35;;;;;;;21.01;45.37;101516.31;19863372;29;20585;-68
2023/04/27 20:31:51;;;;;;;2.83;1.30;;;;;;;20.96;45.35;101505.06;19875651;29;20082;-69
2023/04/27 20:41:53;;;;;;;1.75;1.40;;;;;;;20.93;45.11;101499.06;19870809;29;20062;-69
2023/04/27 20:51:54;;;;;;;2.20;1.50;;;;;;;20.88;44.93;101494.09;19885266;29;20583;-69
2023/04/27 21:01:56;;;;;;;2.72;1.15;;;;;;;20.86;44.63;101487.97;19937070;29;20204;-69
2023/04/27 21:11:57;;;;;;;2.20;1.50;;;;;;;20.82;44.48;101481.16;19899251;29;20396;-69
2023/04/27 21:22:01;;;;;;;1.80;1.35;;;;;;;20.80;44.32;101466.91;19902747;29;20047;-69
2023/04/27 21:32:03;;;;;;;1.73;1.20;;;;;;;20.77;44.02;101464.44;19935519;29;20074;-69
2023/04/27 21:42:07;;;;;;;1.70;1.30;;;;;;;20.74;43.93;101449.34;19901008;29;20055;-69
2023/04/27 21:52:09;;;;;;;1.23;1.10;;;;;;;20.70;43.84;101443.34;19910812;29;20054;-69
2023/04/27 22:02:14;;;;;;;1.50;1.02;;;;;;;20.66;43.86;101417.56;19885735;29;20145;-69
2023/04/27 22:12:16;;;;;;;1.53;0.90;;;;;;;20.59;43.68;101408.31;19885490;29;20509;-69
2023/04/27 22:22:18;;;;;;;1.55;1.08;;;;;;;20.60;43.59;101407.34;19878679;29;20123;-68
2023/04/27 22:32:25;;;;;;;1.23;0.90;;;;;;;20.59;43.53;101392.09;19881916;29;20047;-69
2023/04/27 22:42:33;;;;;;;1.42;1.10;;;;;;;20.60;43.39;101371.31;19873672;29;20079;-69
2023/04/27 22:52:37;;;;;;;1.50;1.30;;;;;;;20.59;43.27;101373.16;19865187;29;20454;-68
2023/04/27 23:02:41;;;;;;;1.35;1.25;;;;;;;20.58;43.11;101369.63;19891501;29;20100;-68
2023/04/27 23:12:46;;;;;;;1.58;1.10;;;;;;;20.57;43.22;101356.22;19869076;29;20104;-69
2023/04/27 23:22:47;;;;;;;2.75;1.00;;;;;;;20.55;43.09;101361.78;19867428;29;20055;-69
2023/04/27 23:32:49;;;;;;;1.13;1.02;;;;;;;20.54;42.93;101351.94;19869843;29;20055;-68
2023/04/27 23:42:52;;;;;;;2.17;1.08;;;;;;;20.51;42.85;101336.00;19894381;29;20107;-68
2023/04/27 23:52:53;;;;;;;1.17;0.70;;;;;;;20.49;42.90;101321.78;19885381;29;20055;-68
